Michigan — WDF5344 — position and weather

sailwx.info

Track history (hours):
 
Tides and Currents Weather Stations Pressure Air Temp Water Temp Dewpoint Dewpoint Depression Visibility Wind Speed Wind Dir Waves Ship Positions

Michigan

Owner: GATX Third Aircraft Corporation, San Francisco, CA. More information available from US FCC via Universal Licensing System and Coast Guard Vessel Documentation Center.

Last reported at 2015-Apr-18 02:24 UTC. Time now 2015-Apr-19 04:37 UTC.
Position N 45°41' W 084°06'.

Length 144 m.

Type: Ship (hazmat cat D). MMSI: 303583000.

Date/timePositionNaut miles runAvg speedWind from/ knotsBaromVisibWave heightAir tempDewpointWater temp
2015-Apr-18 02:24N 45°41' W 084°06'910.3
2015-Apr-18 01:33N 45°46' W 084°16'1010.0
2015-Apr-18 00:33N 45°51' W 084°29'1010.2
2015-Apr-17 23:33N 45°49' W 084°43'9 9.4
2015-Apr-17 22:33N 45°50' W 084°56'1010.3
2015-Apr-17 21:33N 45°51' W 085°11'1010.3
2015-Apr-17 20:33N 45°52' W 085°26'1010.1
2015-Apr-17 19:33N 45°51' W 085°40'1010.4
2015-Apr-17 18:33N 45°46' W 085°53'1010.4
2015-Apr-17 17:33N 45°41' W 086°06'1110.4
2015-Apr-17 16:31N 45°36' W 086°20'1010.4
2015-Apr-17 15:33N 45°31' W 086°32'2010.1
2015-Apr-17 13:33N 45°25' W 086°59'1010.3
2015-Apr-17 12:33N 45°19' W 087°12'21 9.4
2015-Apr-17 10:23N 45°01' W 087°28'810.1
2015-Apr-17 09:33N 44°55' W 087°35'1410.0
2015-Apr-17 08:11N 44°45' W 087°48'  
2015-Apr-12 08:33N 45°05' W 087°25'44 6.1
2015-Apr-12 01:22N 45°30' W 086°34'910.6
2015-Apr-12 00:33N 45°33' W 086°23'1110.8
2015-Apr-11 23:32N 45°38' W 086°08'1010.6
2015-Apr-11 22:33N 45°43' W 085°55'712.8
2015-Apr-11 22:00N 45°48' W 085°48'4 8.1 200 / 141020.3 0.5 3.8
2015-Apr-11 21:33N 45°50' W 085°44'1111.1
2015-Apr-11 20:33N 45°54' W 085°29'7 6.6
2015-Apr-11 19:33N 45°53' W 085°20'6 6.2
2015-Apr-11 18:33N 45°52' W 085°11'2 1.7
2015-Apr-11 17:33N 45°53' W 085°08'1 1.2
2015-Apr-11 16:33N 45°52' W 085°07'7 6.6
2015-Apr-11 15:33N 45°51' W 084°57'6 6.0
2015-Apr-11 14:33N 45°49' W 084°49'6 6.2
2015-Apr-11 13:33N 45°50' W 084°40'7 7.3
2015-Apr-11 12:33N 45°53' W 084°31'4 4.1
2015-Apr-11 11:33N 45°51' W 084°26'4 4.4
2015-Apr-11 10:34N 45°48' W 084°21'6 6.0
2015-Apr-11 09:33N 45°42' W 084°20'6 5.9
2015-Apr-11 08:33N 45°40' W 084°27'1 1.0
2015-Apr-11 07:33N 45°39' W 084°28'0 0.0
2015-Apr-11 06:33N 45°39' W 084°28'0 0.0
2015-Apr-11 05:33N 45°39' W 084°28'0 0.0
2015-Apr-11 04:33N 45°39' W 084°28'0 0.0
2015-Apr-11 03:33N 45°39' W 084°28'0 0.0
2015-Apr-11 02:33N 45°39' W 084°28'0 0.0
2015-Apr-11 01:33N 45°39' W 084°28'0 0.0
2015-Apr-11 00:33N 45°39' W 084°28'0 0.0
2015-Apr-10 23:33N 45°39' W 084°28'3 5.8
2015-Apr-10 23:00N 45°36' W 084°30'3 7.4 310 / 161009.1 2.2
2015-Apr-10 22:33N 45°39' W 084°28'0 0.0
2015-Apr-10 21:33N 45°39' W 084°28'0 0.0
2015-Apr-10 20:33N 45°39' W 084°28'0 0.0
2015-Apr-10 19:33N 45°39' W 084°28'0 0.0
2015-Apr-10 18:33N 45°39' W 084°28'0 0.0
2015-Apr-10 17:33N 45°39' W 084°28'0 0.0
2015-Apr-10 16:33N 45°39' W 084°28'0 0.0
2015-Apr-10 15:33N 45°39' W 084°28'3 5.7
2015-Apr-10 15:00N 45°36' W 084°30'3 7.4 270 / 15996.9 2.2
2015-Apr-10 14:33N 45°39' W 084°28'0 0.0
2015-Apr-10 13:33N 45°39' W 084°28'0 0.0
2015-Apr-10 12:33N 45°39' W 084°28'0 0.0
2015-Apr-10 11:33N 45°39' W 084°28'3 5.7
2015-Apr-10 11:00N 45°36' W 084°30'3 7.4 994.9 1.6
2015-Apr-10 10:33N 45°39' W 084°28'0 0.0
2015-Apr-10 09:33N 45°39' W 084°28'0 0.0
2015-Apr-10 08:33N 45°39' W 084°28'0 0.0
2015-Apr-10 07:33N 45°39' W 084°28'0 0.0
2015-Apr-10 06:33N 45°39' W 084°28'0 0.0
2015-Apr-10 05:33N 45°39' W 084°28'0 0.0
2015-Apr-10 04:33N 45°39' W 084°28'0 0.0
2015-Apr-10 03:33N 45°39' W 084°28'0 0.0
2015-Apr-10 02:33N 45°39' W 084°28'0 0.0
2015-Apr-10 01:33N 45°39' W 084°28'0 0.0
2015-Apr-10 00:33N 45°39' W 084°28'0 0.0
2015-Apr-09 23:33N 45°39' W 084°28'3 5.7
2015-Apr-09 23:00N 45°36' W 084°30'3 7.4 120 / 61006.4 1.1
2015-Apr-09 22:33N 45°39' W 084°28'0 0.0
2015-Apr-09 21:33N 45°39' W 084°28'0 0.0
2015-Apr-09 20:33N 45°39' W 084°28'0 0.0
2015-Apr-09 19:33N 45°39' W 084°28'0 0.0
2015-Apr-09 18:33N 45°39' W 084°28'0 0.0
2015-Apr-09 17:33N 45°39' W 084°28'0 0.0
2015-Apr-09 16:33N 45°39' W 084°28'0 0.0
2015-Apr-09 15:33N 45°39' W 084°28'0 0.0
2015-Apr-09 14:33N 45°39' W 084°28'0 0.0
2015-Apr-09 13:33N 45°39' W 084°28'0 0.0
2015-Apr-09 12:33N 45°39' W 084°28'0 0.0
2015-Apr-09 11:33N 45°39' W 084°28'0 0.0
2015-Apr-09 10:33N 45°39' W 084°28'0 0.0
2015-Apr-09 09:33N 45°39' W 084°28'0 0.0
2015-Apr-09 08:33N 45°39' W 084°28'0 0.0
2015-Apr-09 07:33N 45°39' W 084°28'0 0.0
2015-Apr-09 06:33N 45°39' W 084°28'0 0.0
2015-Apr-09 05:33N 45°39' W 084°28'0 0.0
2015-Apr-09 04:33N 45°39' W 084°28'0 0.0
2015-Apr-09 03:33N 45°39' W 084°28'0 0.0
2015-Apr-09 02:33N 45°39' W 084°28'0 0.0
2015-Apr-09 01:33N 45°39' W 084°28'0 0.0
2015-Apr-09 00:33N 45°39' W 084°28'0 0.0
2015-Apr-08 23:33N 45°39' W 084°28'0 0.0
2015-Apr-08 22:33N 45°39' W 084°28'0 0.0
2015-Apr-08 21:33N 45°39' W 084°28'0 0.0
2015-Apr-08 20:33N 45°39' W 084°28'0 0.0
2015-Apr-08 19:33N 45°39' W 084°28'0 0.0
2015-Apr-08 18:33N 45°39' W 084°28'0 0.0
2015-Apr-08 17:33N 45°39' W 084°28'0 0.0
2015-Apr-08 16:33N 45°39' W 084°28'0 0.0
2015-Apr-08 15:33N 45°39' W 084°28'0 0.0
2015-Apr-08 14:33N 45°39' W 084°28'0 0.0
2015-Apr-08 13:33N 45°39' W 084°28'0 0.0
2015-Apr-08 12:33N 45°39' W 084°28'0 0.0
2015-Apr-08 11:33N 45°39' W 084°28'0 0.0
2015-Apr-08 10:33N 45°39' W 084°28'0 0.0
2015-Apr-08 09:33N 45°39' W 084°28'0 0.0
2015-Apr-08 08:33N 45°39' W 084°28'0 0.0
2015-Apr-08 07:33N 45°39' W 084°28'0 0.0
2015-Apr-08 06:33N 45°39' W 084°28'0 0.0
2015-Apr-08 05:33N 45°39' W 084°28'0 0.0
2015-Apr-08 04:33N 45°39' W 084°28'0 0.0
2015-Apr-08 03:33N 45°39' W 084°28'0 0.0
2015-Apr-08 02:33N 45°39' W 084°28'  
Track history (hours):
 
Tides and Currents Weather Stations Pressure Air Temp Water Temp Dewpoint Dewpoint Depression Visibility Wind Speed Wind Dir Waves Ship Positions

Michigan

Owner: GATX Third Aircraft Corporation, San Francisco, CA. More information available from US FCC via Universal Licensing System and Coast Guard Vessel Documentation Center.

Last reported at 2015-Apr-18 02:24 UTC. Time now 2015-Apr-19 04:37 UTC.
Position N 45°41' W 084°06'.

Length 144 m.

Type: Ship (hazmat cat D). MMSI: 303583000.

Date/timePositionNaut miles runAvg speedWind from/ knotsBaromVisibWave heightAir tempDewpointWater temp
2015-Apr-18 02:24N 45°41' W 084°06'910.3
2015-Apr-18 01:33N 45°46' W 084°16'1010.0
2015-Apr-18 00:33N 45°51' W 084°29'1010.2
2015-Apr-17 23:33N 45°49' W 084°43'9 9.4
2015-Apr-17 22:33N 45°50' W 084°56'1010.3
2015-Apr-17 21:33N 45°51' W 085°11'1010.3
2015-Apr-17 20:33N 45°52' W 085°26'1010.1
2015-Apr-17 19:33N 45°51' W 085°40'1010.4
2015-Apr-17 18:33N 45°46' W 085°53'1010.4
2015-Apr-17 17:33N 45°41' W 086°06'1110.4
2015-Apr-17 16:31N 45°36' W 086°20'1010.4
2015-Apr-17 15:33N 45°31' W 086°32'2010.1
2015-Apr-17 13:33N 45°25' W 086°59'1010.3
2015-Apr-17 12:33N 45°19' W 087°12'21 9.4
2015-Apr-17 10:23N 45°01' W 087°28'810.1
2015-Apr-17 09:33N 44°55' W 087°35'1410.0
2015-Apr-17 08:11N 44°45' W 087°48'  
2015-Apr-12 08:33N 45°05' W 087°25'44 6.1
2015-Apr-12 01:22N 45°30' W 086°34'910.6
2015-Apr-12 00:33N 45°33' W 086°23'1110.8
2015-Apr-11 23:32N 45°38' W 086°08'1010.6
2015-Apr-11 22:33N 45°43' W 085°55'712.8
2015-Apr-11 22:00N 45°48' W 085°48'4 8.1 200 / 141020.3 0.5 3.8
2015-Apr-11 21:33N 45°50' W 085°44'1111.1
2015-Apr-11 20:33N 45°54' W 085°29'7 6.6
2015-Apr-11 19:33N 45°53' W 085°20'6 6.2
2015-Apr-11 18:33N 45°52' W 085°11'2 1.7
2015-Apr-11 17:33N 45°53' W 085°08'1 1.2
2015-Apr-11 16:33N 45°52' W 085°07'7 6.6
2015-Apr-11 15:33N 45°51' W 084°57'6 6.0
2015-Apr-11 14:33N 45°49' W 084°49'6 6.2
2015-Apr-11 13:33N 45°50' W 084°40'7 7.3
2015-Apr-11 12:33N 45°53' W 084°31'4 4.1
2015-Apr-11 11:33N 45°51' W 084°26'4 4.4
2015-Apr-11 10:34N 45°48' W 084°21'6 6.0
2015-Apr-11 09:33N 45°42' W 084°20'6 5.9
2015-Apr-11 08:33N 45°40' W 084°27'1 1.0
2015-Apr-11 07:33N 45°39' W 084°28'0 0.0
2015-Apr-11 06:33N 45°39' W 084°28'0 0.0
2015-Apr-11 05:33N 45°39' W 084°28'0 0.0
2015-Apr-11 04:33N 45°39' W 084°28'0 0.0
2015-Apr-11 03:33N 45°39' W 084°28'0 0.0
2015-Apr-11 02:33N 45°39' W 084°28'0 0.0
2015-Apr-11 01:33N 45°39' W 084°28'0 0.0
2015-Apr-11 00:33N 45°39' W 084°28'0 0.0
2015-Apr-10 23:33N 45°39' W 084°28'3 5.8
2015-Apr-10 23:00N 45°36' W 084°30'3 7.4 310 / 161009.1 2.2
2015-Apr-10 22:33N 45°39' W 084°28'0 0.0
2015-Apr-10 21:33N 45°39' W 084°28'0 0.0
2015-Apr-10 20:33N 45°39' W 084°28'0 0.0
2015-Apr-10 19:33N 45°39' W 084°28'0 0.0
2015-Apr-10 18:33N 45°39' W 084°28'0 0.0
2015-Apr-10 17:33N 45°39' W 084°28'0 0.0
2015-Apr-10 16:33N 45°39' W 084°28'0 0.0
2015-Apr-10 15:33N 45°39' W 084°28'3 5.7
2015-Apr-10 15:00N 45°36' W 084°30'3 7.4 270 / 15996.9 2.2
2015-Apr-10 14:33N 45°39' W 084°28'0 0.0
2015-Apr-10 13:33N 45°39' W 084°28'0 0.0
2015-Apr-10 12:33N 45°39' W 084°28'0 0.0
2015-Apr-10 11:33N 45°39' W 084°28'3 5.7
2015-Apr-10 11:00N 45°36' W 084°30'3 7.4 994.9 1.6
2015-Apr-10 10:33N 45°39' W 084°28'0 0.0
2015-Apr-10 09:33N 45°39' W 084°28'0 0.0
2015-Apr-10 08:33N 45°39' W 084°28'0 0.0
2015-Apr-10 07:33N 45°39' W 084°28'0 0.0
2015-Apr-10 06:33N 45°39' W 084°28'0 0.0
2015-Apr-10 05:33N 45°39' W 084°28'0 0.0
2015-Apr-10 04:33N 45°39' W 084°28'0 0.0
2015-Apr-10 03:33N 45°39' W 084°28'0 0.0
2015-Apr-10 02:33N 45°39' W 084°28'0 0.0
2015-Apr-10 01:33N 45°39' W 084°28'0 0.0
2015-Apr-10 00:33N 45°39' W 084°28'0 0.0
2015-Apr-09 23:33N 45°39' W 084°28'3 5.7
2015-Apr-09 23:00N 45°36' W 084°30'3 7.4 120 / 61006.4 1.1
2015-Apr-09 22:33N 45°39' W 084°28'0 0.0
2015-Apr-09 21:33N 45°39' W 084°28'0 0.0
2015-Apr-09 20:33N 45°39' W 084°28'0 0.0
2015-Apr-09 19:33N 45°39' W 084°28'0 0.0
2015-Apr-09 18:33N 45°39' W 084°28'0 0.0
2015-Apr-09 17:33N 45°39' W 084°28'0 0.0
2015-Apr-09 16:33N 45°39' W 084°28'0 0.0
2015-Apr-09 15:33N 45°39' W 084°28'0 0.0
2015-Apr-09 14:33N 45°39' W 084°28'0 0.0
2015-Apr-09 13:33N 45°39' W 084°28'0 0.0
2015-Apr-09 12:33N 45°39' W 084°28'0 0.0
2015-Apr-09 11:33N 45°39' W 084°28'0 0.0
2015-Apr-09 10:33N 45°39' W 084°28'0 0.0
2015-Apr-09 09:33N 45°39' W 084°28'0 0.0
2015-Apr-09 08:33N 45°39' W 084°28'0 0.0
2015-Apr-09 07:33N 45°39' W 084°28'0 0.0
2015-Apr-09 06:33N 45°39' W 084°28'0 0.0
2015-Apr-09 05:33N 45°39' W 084°28'0 0.0
2015-Apr-09 04:33N 45°39' W 084°28'0 0.0
2015-Apr-09 03:33N 45°39' W 084°28'0 0.0
2015-Apr-09 02:33N 45°39' W 084°28'0 0.0
2015-Apr-09 01:33N 45°39' W 084°28'0 0.0
2015-Apr-09 00:33N 45°39' W 084°28'0 0.0
2015-Apr-08 23:33N 45°39' W 084°28'0 0.0
2015-Apr-08 22:33N 45°39' W 084°28'0 0.0
2015-Apr-08 21:33N 45°39' W 084°28'0 0.0
2015-Apr-08 20:33N 45°39' W 084°28'0 0.0
2015-Apr-08 19:33N 45°39' W 084°28'0 0.0
2015-Apr-08 18:33N 45°39' W 084°28'0 0.0
2015-Apr-08 17:33N 45°39' W 084°28'0 0.0
2015-Apr-08 16:33N 45°39' W 084°28'0 0.0
2015-Apr-08 15:33N 45°39' W 084°28'0 0.0
2015-Apr-08 14:33N 45°39' W 084°28'0 0.0
2015-Apr-08 13:33N 45°39' W 084°28'0 0.0
2015-Apr-08 12:33N 45°39' W 084°28'0 0.0
2015-Apr-08 11:33N 45°39' W 084°28'0 0.0
2015-Apr-08 10:33N 45°39' W 084°28'0 0.0
2015-Apr-08 09:33N 45°39' W 084°28'0 0.0
2015-Apr-08 08:33N 45°39' W 084°28'0 0.0
2015-Apr-08 07:33N 45°39' W 084°28'0 0.0
2015-Apr-08 06:33N 45°39' W 084°28'0 0.0
2015-Apr-08 05:33N 45°39' W 084°28'0 0.0
2015-Apr-08 04:33N 45°39' W 084°28'0 0.0
2015-Apr-08 03:33N 45°39' W 084°28'0 0.0
2015-Apr-08 02:33N 45°39' W 084°28'  

Dump ship's entire track history